sensor_id;sensor_type;location;lat;lon;timestamp;P1;durP1;ratioP1;P2;durP2;ratioP2
19739;SDS011;10027;51.066;13.768;2022-10-22T00:01:53;23.03;;;12.70;;
19739;SDS011;10027;51.066;13.768;2022-10-22T00:04:20;23.30;;;12.13;;
19739;SDS011;10027;51.066;13.768;2022-10-22T00:06:47;22.97;;;11.80;;
19739;SDS011;10027;51.066;13.768;2022-10-22T00:09:14;25.60;;;11.73;;
19739;SDS011;10027;51.066;13.768;2022-10-22T00:11:41;24.33;;;12.53;;
19739;SDS011;10027;51.066;13.768;2022-10-22T00:14:09;24.13;;;13.27;;
19739;SDS011;10027;51.066;13.768;2022-10-22T00:16:36;22.30;;;12.50;;
19739;SDS011;10027;51.066;13.768;2022-10-22T00:19:03;20.13;;;11.93;;
19739;SDS011;10027;51.066;13.768;2022-10-22T00:21:30;23.07;;;12.40;;
19739;SDS011;10027;51.066;13.768;2022-10-22T00:23:57;27.57;;;12.50;;
19739;SDS011;10027;51.066;13.768;2022-10-22T00:26:24;19.87;;;11.90;;
19739;SDS011;10027;51.066;13.768;2022-10-22T00:28:51;26.13;;;13.03;;
19739;SDS011;10027;51.066;13.768;2022-10-22T00:31:18;25.10;;;13.30;;
19739;SDS011;10027;51.066;13.768;2022-10-22T00:33:46;22.87;;;12.20;;
19739;SDS011;10027;51.066;13.768;2022-10-22T00:36:14;27.60;;;12.80;;
19739;SDS011;10027;51.066;13.768;2022-10-22T00:38:41;23.57;;;12.90;;
19739;SDS011;10027;51.066;13.768;2022-10-22T00:41:08;25.33;;;12.53;;
19739;SDS011;10027;51.066;13.768;2022-10-22T00:43:51;22.47;;;11.97;;
19739;SDS011;10027;51.066;13.768;2022-10-22T00:46:19;28.83;;;12.53;;
19739;SDS011;10027;51.066;13.768;2022-10-22T00:48:46;24.80;;;12.97;;
19739;SDS011;10027;51.066;13.768;2022-10-22T00:51:13;31.23;;;13.43;;
19739;SDS011;10027;51.066;13.768;2022-10-22T00:53:42;25.83;;;12.73;;
19739;SDS011;10027;51.066;13.768;2022-10-22T00:56:10;21.20;;;12.60;;
19739;SDS011;10027;51.066;13.768;2022-10-22T00:58:38;29.07;;;13.30;;
19739;SDS011;10027;51.066;13.768;2022-10-22T01:01:08;25.00;;;13.10;;
19739;SDS011;10027;51.066;13.768;2022-10-22T01:03:36;26.27;;;13.50;;
19739;SDS011;10027;51.066;13.768;2022-10-22T01:06:04;30.43;;;13.47;;
19739;SDS011;10027;51.066;13.768;2022-10-22T01:08:34;27.07;;;13.53;;
19739;SDS011;10027;51.066;13.768;2022-10-22T01:11:07;31.20;;;13.87;;
19739;SDS011;10027;51.066;13.768;2022-10-22T01:22:43;29.13;;;14.07;;
19739;SDS011;10027;51.066;13.768;2022-10-22T01:27:31;28.07;;;13.00;;
19739;SDS011;10027;51.066;13.768;2022-10-22T01:30:05;33.33;;;13.27;;
19739;SDS011;10027;51.066;13.768;2022-10-22T01:32:39;29.90;;;14.53;;
19739;SDS011;10027;51.066;13.768;2022-10-22T01:35:08;34.27;;;14.47;;
19739;SDS011;10027;51.066;13.768;2022-10-22T01:37:38;31.07;;;14.07;;
19739;SDS011;10027;51.066;13.768;2022-10-22T01:40:08;26.27;;;13.17;;
19739;SDS011;10027;51.066;13.768;2022-10-22T01:42:35;28.00;;;13.90;;
19739;SDS011;10027;51.066;13.768;2022-10-22T01:45:08;39.13;;;14.33;;
19739;SDS011;10027;51.066;13.768;2022-10-22T01:55:41;28.27;;;13.63;;
19739;SDS011;10027;51.066;13.768;2022-10-22T02:00:43;30.93;;;14.13;;
19739;SDS011;10027;51.066;13.768;2022-10-22T02:03:13;32.00;;;13.53;;
19739;SDS011;10027;51.066;13.768;2022-10-22T02:05:56;34.67;;;14.87;;
19739;SDS011;10027;51.066;13.768;2022-10-22T02:08:28;28.37;;;14.00;;
19739;SDS011;10027;51.066;13.768;2022-10-22T02:10:56;31.63;;;13.73;;
19739;SDS011;10027;51.066;13.768;2022-10-22T02:13:26;30.53;;;13.77;;
19739;SDS011;10027;51.066;13.768;2022-10-22T02:15:53;26.17;;;13.53;;
19739;SDS011;10027;51.066;13.768;2022-10-22T02:18:23;29.97;;;13.57;;
19739;SDS011;10027;51.066;13.768;2022-10-22T02:20:52;24.03;;;13.50;;
19739;SDS011;10027;51.066;13.768;2022-10-22T02:23:19;22.43;;;11.97;;
19739;SDS011;10027;51.066;13.768;2022-10-22T02:25:48;22.90;;;12.20;;
19739;SDS011;10027;51.066;13.768;2022-10-22T02:28:28;26.30;;;13.00;;
19739;SDS011;10027;51.066;13.768;2022-10-22T02:31:03;26.00;;;12.93;;
19739;SDS011;10027;51.066;13.768;2022-10-22T02:33:33;25.33;;;12.93;;
19739;SDS011;10027;51.066;13.768;2022-10-22T02:36:02;26.00;;;13.03;;
19739;SDS011;10027;51.066;13.768;2022-10-22T02:38:30;24.97;;;12.63;;
19739;SDS011;10027;51.066;13.768;2022-10-22T02:40:57;22.43;;;12.33;;
19739;SDS011;10027;51.066;13.768;2022-10-22T02:43:24;22.03;;;12.00;;
19739;SDS011;10027;51.066;13.768;2022-10-22T02:45:51;25.50;;;12.30;;
19739;SDS011;10027;51.066;13.768;2022-10-22T02:48:18;27.23;;;12.83;;
19739;SDS011;10027;51.066;13.768;2022-10-22T02:50:50;24.30;;;12.63;;
19739;SDS011;10027;51.066;13.768;2022-10-22T02:53:18;26.07;;;11.63;;
19739;SDS011;10027;51.066;13.768;2022-10-22T02:55:45;25.73;;;12.57;;
19739;SDS011;10027;51.066;13.768;2022-10-22T02:58:12;26.93;;;13.07;;
19739;SDS011;10027;51.066;13.768;2022-10-22T03:00:39;24.77;;;12.63;;
19739;SDS011;10027;51.066;13.768;2022-10-22T03:03:06;30.17;;;12.40;;
19739;SDS011;10027;51.066;13.768;2022-10-22T03:05:33;25.37;;;12.90;;
19739;SDS011;10027;51.066;13.768;2022-10-22T03:08:01;23.23;;;12.83;;
19739;SDS011;10027;51.066;13.768;2022-10-22T03:10:28;28.77;;;12.50;;
19739;SDS011;10027;51.066;13.768;2022-10-22T03:12:55;29.07;;;12.83;;
19739;SDS011;10027;51.066;13.768;2022-10-22T03:15:22;25.73;;;13.23;;
19739;SDS011;10027;51.066;13.768;2022-10-22T03:17:49;29.37;;;14.33;;
19739;SDS011;10027;51.066;13.768;2022-10-22T03:20:16;25.57;;;12.77;;
19739;SDS011;10027;51.066;13.768;2022-10-22T03:22:43;25.73;;;13.13;;
19739;SDS011;10027;51.066;13.768;2022-10-22T03:25:11;27.93;;;13.57;;
19739;SDS011;10027;51.066;13.768;2022-10-22T03:27:40;25.73;;;12.50;;
19739;SDS011;10027;51.066;13.768;2022-10-22T03:30:08;23.50;;;12.90;;
19739;SDS011;10027;51.066;13.768;2022-10-22T03:32:35;26.30;;;12.87;;
19739;SDS011;10027;51.066;13.768;2022-10-22T03:35:02;23.77;;;11.73;;
19739;SDS011;10027;51.066;13.768;2022-10-22T03:37:30;26.00;;;13.03;;
19739;SDS011;10027;51.066;13.768;2022-10-22T03:39:58;27.13;;;12.70;;
19739;SDS011;10027;51.066;13.768;2022-10-22T03:42:25;28.57;;;13.00;;
19739;SDS011;10027;51.066;13.768;2022-10-22T03:44:52;31.13;;;14.23;;
19739;SDS011;10027;51.066;13.768;2022-10-22T03:47:19;25.43;;;12.90;;
19739;SDS011;10027;51.066;13.768;2022-10-22T03:49:52;23.03;;;12.63;;
19739;SDS011;10027;51.066;13.768;2022-10-22T03:52:19;26.27;;;13.00;;
19739;SDS011;10027;51.066;13.768;2022-10-22T03:54:46;31.47;;;13.67;;
19739;SDS011;10027;51.066;13.768;2022-10-22T03:57:13;29.07;;;13.63;;
19739;SDS011;10027;51.066;13.768;2022-10-22T03:59:41;23.57;;;12.47;;
19739;SDS011;10027;51.066;13.768;2022-10-22T04:02:09;26.10;;;12.67;;
19739;SDS011;10027;51.066;13.768;2022-10-22T04:04:36;30.23;;;13.67;;
19739;SDS011;10027;51.066;13.768;2022-10-22T04:07:05;27.93;;;13.53;;
19739;SDS011;10027;51.066;13.768;2022-10-22T04:09:32;27.77;;;13.30;;
19739;SDS011;10027;51.066;13.768;2022-10-22T04:12:00;28.23;;;13.47;;
19739;SDS011;10027;51.066;13.768;2022-10-22T04:14:27;24.13;;;13.00;;
19739;SDS011;10027;51.066;13.768;2022-10-22T04:16:54;26.67;;;13.57;;
19739;SDS011;10027;51.066;13.768;2022-10-22T04:19:21;33.80;;;13.73;;
19739;SDS011;10027;51.066;13.768;2022-10-22T04:21:48;29.63;;;13.43;;
19739;SDS011;10027;51.066;13.768;2022-10-22T04:24:15;23.57;;;12.90;;
19739;SDS011;10027;51.066;13.768;2022-10-22T04:26:42;28.50;;;12.90;;
19739;SDS011;10027;51.066;13.768;2022-10-22T04:29:09;28.57;;;13.13;;
19739;SDS011;10027;51.066;13.768;2022-10-22T04:31:41;23.73;;;12.43;;
19739;SDS011;10027;51.066;13.768;2022-10-22T04:34:08;26.97;;;13.57;;
19739;SDS011;10027;51.066;13.768;2022-10-22T04:36:35;27.67;;;13.70;;
19739;SDS011;10027;51.066;13.768;2022-10-22T04:39:02;24.97;;;13.30;;
19739;SDS011;10027;51.066;13.768;2022-10-22T04:41:31;25.87;;;13.07;;
19739;SDS011;10027;51.066;13.768;2022-10-22T04:43:58;24.17;;;12.80;;
19739;SDS011;10027;51.066;13.768;2022-10-22T04:46:30;31.50;;;13.30;;
19739;SDS011;10027;51.066;13.768;2022-10-22T04:48:57;25.00;;;13.00;;
19739;SDS011;10027;51.066;13.768;2022-10-22T04:51:25;22.97;;;12.80;;
19739;SDS011;10027;51.066;13.768;2022-10-22T04:53:53;28.73;;;13.30;;
19739;SDS011;10027;51.066;13.768;2022-10-22T04:56:21;23.90;;;12.17;;
19739;SDS011;10027;51.066;13.768;2022-10-22T04:58:51;25.37;;;12.47;;
19739;SDS011;10027;51.066;13.768;2022-10-22T05:01:19;22.43;;;11.77;;
19739;SDS011;10027;51.066;13.768;2022-10-22T05:03:47;24.63;;;12.30;;
19739;SDS011;10027;51.066;13.768;2022-10-22T05:06:14;25.03;;;12.10;;
19739;SDS011;10027;51.066;13.768;2022-10-22T05:08:42;25.80;;;12.40;;
19739;SDS011;10027;51.066;13.768;2022-10-22T05:11:17;21.17;;;12.47;;
19739;SDS011;10027;51.066;13.768;2022-10-22T05:13:44;24.97;;;12.57;;
19739;SDS011;10027;51.066;13.768;2022-10-22T05:16:12;24.80;;;12.33;;
19739;SDS011;10027;51.066;13.768;2022-10-22T05:18:40;23.03;;;12.17;;
19739;SDS011;10027;51.066;13.768;2022-10-22T05:21:08;20.83;;;12.17;;
19739;SDS011;10027;51.066;13.768;2022-10-22T05:23:35;22.23;;;11.83;;
19739;SDS011;10027;51.066;13.768;2022-10-22T05:26:03;23.00;;;12.50;;
19739;SDS011;10027;51.066;13.768;2022-10-22T05:28:30;21.83;;;11.90;;
19739;SDS011;10027;51.066;13.768;2022-10-22T05:30:58;23.30;;;12.03;;
19739;SDS011;10027;51.066;13.768;2022-10-22T05:33:31;20.77;;;12.00;;
19739;SDS011;10027;51.066;13.768;2022-10-22T05:35:58;23.40;;;12.60;;
19739;SDS011;10027;51.066;13.768;2022-10-22T05:38:26;29.70;;;13.07;;
19739;SDS011;10027;51.066;13.768;2022-10-22T05:41:06;23.63;;;12.47;;
19739;SDS011;10027;51.066;13.768;2022-10-22T05:43:33;24.03;;;12.40;;
19739;SDS011;10027;51.066;13.768;2022-10-22T05:46:01;24.50;;;12.77;;
19739;SDS011;10027;51.066;13.768;2022-10-22T05:48:29;26.17;;;12.33;;
19739;SDS011;10027;51.066;13.768;2022-10-22T05:51:00;24.87;;;11.97;;
19739;SDS011;10027;51.066;13.768;2022-10-22T05:53:33;21.13;;;11.43;;
19739;SDS011;10027;51.066;13.768;2022-10-22T05:56:01;24.50;;;12.23;;
19739;SDS011;10027;51.066;13.768;2022-10-22T05:58:28;20.60;;;11.50;;
19739;SDS011;10027;51.066;13.768;2022-10-22T06:01:05;20.97;;;11.60;;
19739;SDS011;10027;51.066;13.768;2022-10-22T06:03:32;21.30;;;11.83;;
19739;SDS011;10027;51.066;13.768;2022-10-22T06:08:42;21.23;;;11.80;;
19739;SDS011;10027;51.066;13.768;2022-10-22T06:11:09;22.37;;;11.20;;
19739;SDS011;10027;51.066;13.768;2022-10-22T06:13:36;21.53;;;11.60;;
19739;SDS011;10027;51.066;13.768;2022-10-22T06:16:03;23.93;;;11.60;;
19739;SDS011;10027;51.066;13.768;2022-10-22T06:18:31;22.27;;;12.13;;
19739;SDS011;10027;51.066;13.768;2022-10-22T06:21:11;20.23;;;11.40;;
19739;SDS011;10027;51.066;13.768;2022-10-22T06:23:39;21.20;;;11.97;;
19739;SDS011;10027;51.066;13.768;2022-10-22T06:26:07;22.53;;;11.13;;
19739;SDS011;10027;51.066;13.768;2022-10-22T06:28:34;18.43;;;10.60;;
19739;SDS011;10027;51.066;13.768;2022-10-22T06:31:02;19.57;;;11.23;;
19739;SDS011;10027;51.066;13.768;2022-10-22T06:33:30;17.57;;;10.83;;
19739;SDS011;10027;51.066;13.768;2022-10-22T06:36:05;18.20;;;10.70;;
19739;SDS011;10027;51.066;13.768;2022-10-22T06:38:33;20.13;;;11.70;;
19739;SDS011;10027;51.066;13.768;2022-10-22T06:41:08;20.10;;;11.70;;
19739;SDS011;10027;51.066;13.768;2022-10-22T06:43:35;18.80;;;10.80;;
19739;SDS011;10027;51.066;13.768;2022-10-22T06:46:03;20.23;;;11.37;;
19739;SDS011;10027;51.066;13.768;2022-10-22T06:48:32;26.97;;;11.80;;
19739;SDS011;10027;51.066;13.768;2022-10-22T06:51:01;20.93;;;11.57;;
19739;SDS011;10027;51.066;13.768;2022-10-22T06:53:29;22.07;;;11.63;;
19739;SDS011;10027;51.066;13.768;2022-10-22T06:55:56;20.00;;;10.67;;
19739;SDS011;10027;51.066;13.768;2022-10-22T06:58:23;19.10;;;11.13;;
19739;SDS011;10027;51.066;13.768;2022-10-22T07:00:59;18.23;;;11.07;;
19739;SDS011;10027;51.066;13.768;2022-10-22T07:03:26;26.90;;;11.73;;
19739;SDS011;10027;51.066;13.768;2022-10-22T07:05:53;23.87;;;11.40;;
19739;SDS011;10027;51.066;13.768;2022-10-22T07:08:21;20.53;;;11.30;;
19739;SDS011;10027;51.066;13.768;2022-10-22T07:10:48;25.23;;;11.53;;
19739;SDS011;10027;51.066;13.768;2022-10-22T07:13:15;18.27;;;10.97;;
19739;SDS011;10027;51.066;13.768;2022-10-22T07:15:42;24.57;;;11.63;;
19739;SDS011;10027;51.066;13.768;2022-10-22T07:18:09;18.30;;;11.30;;
19739;SDS011;10027;51.066;13.768;2022-10-22T07:20:36;21.60;;;11.47;;
19739;SDS011;10027;51.066;13.768;2022-10-22T07:23:03;23.07;;;11.10;;
19739;SDS011;10027;51.066;13.768;2022-10-22T07:25:30;20.67;;;11.73;;
19739;SDS011;10027;51.066;13.768;2022-10-22T07:27:57;20.03;;;11.40;;
19739;SDS011;10027;51.066;13.768;2022-10-22T07:30:24;20.03;;;11.30;;
19739;SDS011;10027;51.066;13.768;2022-10-22T07:32:51;21.00;;;11.37;;
19739;SDS011;10027;51.066;13.768;2022-10-22T07:35:18;21.90;;;11.70;;
19739;SDS011;10027;51.066;13.768;2022-10-22T07:37:45;23.83;;;11.77;;
19739;SDS011;10027;51.066;13.768;2022-10-22T07:40:12;22.80;;;12.00;;
19739;SDS011;10027;51.066;13.768;2022-10-22T07:42:39;24.30;;;11.03;;
19739;SDS011;10027;51.066;13.768;2022-10-22T07:45:07;20.40;;;11.53;;
19739;SDS011;10027;51.066;13.768;2022-10-22T07:47:34;21.77;;;11.57;;
19739;SDS011;10027;51.066;13.768;2022-10-22T07:50:01;18.40;;;11.50;;
19739;SDS011;10027;51.066;13.768;2022-10-22T07:52:28;22.03;;;11.60;;
19739;SDS011;10027;51.066;13.768;2022-10-22T07:54:55;21.07;;;11.33;;
19739;SDS011;10027;51.066;13.768;2022-10-22T07:57:22;22.63;;;11.80;;
19739;SDS011;10027;51.066;13.768;2022-10-22T07:59:49;32.90;;;12.83;;
19739;SDS011;10027;51.066;13.768;2022-10-22T08:02:16;21.80;;;11.47;;
19739;SDS011;10027;51.066;13.768;2022-10-22T08:04:44;25.53;;;13.23;;
19739;SDS011;10027;51.066;13.768;2022-10-22T08:07:11;26.07;;;12.63;;
19739;SDS011;10027;51.066;13.768;2022-10-22T08:09:38;27.07;;;12.83;;
19739;SDS011;10027;51.066;13.768;2022-10-22T08:12:05;23.97;;;13.00;;
19739;SDS011;10027;51.066;13.768;2022-10-22T08:14:32;26.97;;;13.23;;
19739;SDS011;10027;51.066;13.768;2022-10-22T08:16:59;28.90;;;13.87;;
19739;SDS011;10027;51.066;13.768;2022-10-22T08:19:26;26.40;;;12.57;;
19739;SDS011;10027;51.066;13.768;2022-10-22T08:21:54;23.87;;;11.63;;
19739;SDS011;10027;51.066;13.768;2022-10-22T08:24:21;24.93;;;13.10;;
19739;SDS011;10027;51.066;13.768;2022-10-22T08:26:48;23.10;;;12.33;;
19739;SDS011;10027;51.066;13.768;2022-10-22T08:29:16;21.27;;;11.50;;
19739;SDS011;10027;51.066;13.768;2022-10-22T08:31:43;23.90;;;11.70;;
19739;SDS011;10027;51.066;13.768;2022-10-22T08:34:10;22.17;;;12.17;;
19739;SDS011;10027;51.066;13.768;2022-10-22T08:36:37;25.23;;;11.57;;
19739;SDS011;10027;51.066;13.768;2022-10-22T08:39:04;23.97;;;11.50;;
19739;SDS011;10027;51.066;13.768;2022-10-22T08:41:31;18.67;;;11.13;;
19739;SDS011;10027;51.066;13.768;2022-10-22T08:47:09;23.13;;;10.90;;
19739;SDS011;10027;51.066;13.768;2022-10-22T08:49:46;17.93;;;10.43;;
19739;SDS011;10027;51.066;13.768;2022-10-22T08:52:15;19.20;;;10.87;;
19739;SDS011;10027;51.066;13.768;2022-10-22T08:54:48;18.07;;;10.37;;
19739;SDS011;10027;51.066;13.768;2022-10-22T08:59:58;16.47;;;9.53;;
19739;SDS011;10027;51.066;13.768;2022-10-22T09:05:05;19.77;;;9.40;;
19739;SDS011;10027;51.066;13.768;2022-10-22T09:07:39;16.73;;;8.57;;
19739;SDS011;10027;51.066;13.768;2022-10-22T09:10:07;15.97;;;9.20;;
19739;SDS011;10027;51.066;13.768;2022-10-22T09:12:35;14.00;;;8.90;;
19739;SDS011;10027;51.066;13.768;2022-10-22T09:15:03;18.93;;;8.93;;
19739;SDS011;10027;51.066;13.768;2022-10-22T09:20:10;15.03;;;8.87;;
19739;SDS011;10027;51.066;13.768;2022-10-22T09:25:25;15.37;;;9.30;;
19739;SDS011;10027;51.066;13.768;2022-10-22T09:27:52;14.27;;;8.13;;
19739;SDS011;10027;51.066;13.768;2022-10-22T09:30:27;13.47;;;8.47;;
19739;SDS011;10027;51.066;13.768;2022-10-22T09:32:58;15.87;;;8.83;;
19739;SDS011;10027;51.066;13.768;2022-10-22T09:35:26;16.63;;;9.10;;
19739;SDS011;10027;51.066;13.768;2022-10-22T09:37:55;14.47;;;8.43;;
19739;SDS011;10027;51.066;13.768;2022-10-22T09:40:22;15.93;;;8.77;;
19739;SDS011;10027;51.066;13.768;2022-10-22T09:42:49;16.60;;;9.47;;
19739;SDS011;10027;51.066;13.768;2022-10-22T09:45:18;14.93;;;8.83;;
19739;SDS011;10027;51.066;13.768;2022-10-22T09:47:46;16.23;;;9.23;;
19739;SDS011;10027;51.066;13.768;2022-10-22T09:53:03;13.30;;;8.43;;
19739;SDS011;10027;51.066;13.768;2022-10-22T09:55:31;12.27;;;8.27;;
19739;SDS011;10027;51.066;13.768;2022-10-22T09:57:59;22.60;;;14.93;;
19739;SDS011;10027;51.066;13.768;2022-10-22T10:00:26;16.47;;;9.20;;
19739;SDS011;10027;51.066;13.768;2022-10-22T10:02:56;14.70;;;8.67;;
19739;SDS011;10027;51.066;13.768;2022-10-22T10:05:24;13.83;;;8.53;;
19739;SDS011;10027;51.066;13.768;2022-10-22T10:07:51;14.40;;;8.67;;
19739;SDS011;10027;51.066;13.768;2022-10-22T10:10:23;13.03;;;8.90;;
19739;SDS011;10027;51.066;13.768;2022-10-22T10:13:00;12.83;;;8.93;;
19739;SDS011;10027;51.066;13.768;2022-10-22T10:15:31;14.30;;;8.87;;
19739;SDS011;10027;51.066;13.768;2022-10-22T10:18:09;12.67;;;8.40;;
19739;SDS011;10027;51.066;13.768;2022-10-22T10:20:41;13.23;;;8.40;;
19739;SDS011;10027;51.066;13.768;2022-10-22T10:23:24;13.23;;;8.03;;
19739;SDS011;10027;51.066;13.768;2022-10-22T10:25:56;10.53;;;7.63;;
19739;SDS011;10027;51.066;13.768;2022-10-22T10:36:11;13.50;;;7.60;;
19739;SDS011;10027;51.066;13.768;2022-10-22T10:38:59;12.80;;;7.07;;
19739;SDS011;10027;51.066;13.768;2022-10-22T10:41:44;11.73;;;7.40;;
19739;SDS011;10027;51.066;13.768;2022-10-22T10:56:44;10.13;;;6.10;;
19739;SDS011;10027;51.066;13.768;2022-10-22T11:07:08;8.83;;;6.20;;
19739;SDS011;10027;51.066;13.768;2022-10-22T11:09:44;8.53;;;6.17;;
19739;SDS011;10027;51.066;13.768;2022-10-22T11:12:16;10.10;;;6.57;;
19739;SDS011;10027;51.066;13.768;2022-10-22T11:17:43;9.90;;;6.23;;
19739;SDS011;10027;51.066;13.768;2022-10-22T11:20:19;7.63;;;6.00;;
19739;SDS011;10027;51.066;13.768;2022-10-22T11:22:50;9.17;;;5.80;;
19739;SDS011;10027;51.066;13.768;2022-10-22T11:25:45;8.63;;;5.87;;
19739;SDS011;10027;51.066;13.768;2022-10-22T11:28:13;8.13;;;6.50;;
19739;SDS011;10027;51.066;13.768;2022-10-22T11:30:43;9.67;;;6.47;;
19739;SDS011;10027;51.066;13.768;2022-10-22T11:33:14;8.10;;;6.23;;
19739;SDS011;10027;51.066;13.768;2022-10-22T11:35:42;8.00;;;5.70;;
19739;SDS011;10027;51.066;13.768;2022-10-22T11:38:14;9.90;;;5.90;;
19739;SDS011;10027;51.066;13.768;2022-10-22T11:40:44;7.50;;;5.90;;
19739;SDS011;10027;51.066;13.768;2022-10-22T11:43:24;7.70;;;5.90;;
19739;SDS011;10027;51.066;13.768;2022-10-22T11:45:56;8.47;;;6.27;;
19739;SDS011;10027;51.066;13.768;2022-10-22T11:48:25;12.90;;;6.40;;
19739;SDS011;10027;51.066;13.768;2022-10-22T11:51:00;8.70;;;6.27;;
19739;SDS011;10027;51.066;13.768;2022-10-22T11:53:31;7.63;;;6.00;;
19739;SDS011;10027;51.066;13.768;2022-10-22T11:58:39;8.60;;;6.30;;
19739;SDS011;10027;51.066;13.768;2022-10-22T12:03:52;8.77;;;5.87;;
19739;SDS011;10027;51.066;13.768;2022-10-22T12:06:21;7.90;;;5.67;;
19739;SDS011;10027;51.066;13.768;2022-10-22T12:16:18;8.03;;;6.43;;
19739;SDS011;10027;51.066;13.768;2022-10-22T12:21:51;8.83;;;6.07;;
19739;SDS011;10027;51.066;13.768;2022-10-22T12:24:20;8.87;;;6.13;;
19739;SDS011;10027;51.066;13.768;2022-10-22T12:26:48;9.13;;;6.33;;
19739;SDS011;10027;51.066;13.768;2022-10-22T12:29:18;7.50;;;5.93;;
19739;SDS011;10027;51.066;13.768;2022-10-22T12:31:47;8.70;;;6.27;;
19739;SDS011;10027;51.066;13.768;2022-10-22T12:34:20;8.93;;;6.20;;
19739;SDS011;10027;51.066;13.768;2022-10-22T12:36:48;7.07;;;5.90;;
19739;SDS011;10027;51.066;13.768;2022-10-22T12:39:16;11.47;;;5.80;;
19739;SDS011;10027;51.066;13.768;2022-10-22T12:41:44;7.43;;;5.50;;
19739;SDS011;10027;51.066;13.768;2022-10-22T12:44:13;6.33;;;5.50;;
19739;SDS011;10027;51.066;13.768;2022-10-22T12:46:40;7.57;;;5.50;;
19739;SDS011;10027;51.066;13.768;2022-10-22T12:49:18;8.30;;;5.53;;
19739;SDS011;10027;51.066;13.768;2022-10-22T12:51:46;6.60;;;5.33;;
19739;SDS011;10027;51.066;13.768;2022-10-22T12:54:24;8.73;;;5.87;;
19739;SDS011;10027;51.066;13.768;2022-10-22T12:56:52;7.33;;;5.20;;
19739;SDS011;10027;51.066;13.768;2022-10-22T12:59:38;8.17;;;5.40;;
19739;SDS011;10027;51.066;13.768;2022-10-22T13:02:21;6.53;;;4.93;;
19739;SDS011;10027;51.066;13.768;2022-10-22T13:07:38;6.80;;;4.90;;
19739;SDS011;10027;51.066;13.768;2022-10-22T13:12:44;6.00;;;4.77;;
19739;SDS011;10027;51.066;13.768;2022-10-22T13:17:45;6.30;;;4.37;;
19739;SDS011;10027;51.066;13.768;2022-10-22T13:20:15;5.70;;;4.20;;
19739;SDS011;10027;51.066;13.768;2022-10-22T13:25:21;5.50;;;4.03;;
19739;SDS011;10027;51.066;13.768;2022-10-22T13:27:49;5.40;;;3.97;;
19739;SDS011;10027;51.066;13.768;2022-10-22T13:30:22;5.30;;;4.20;;
19739;SDS011;10027;51.066;13.768;2022-10-22T13:32:50;5.50;;;4.00;;
19739;SDS011;10027;51.066;13.768;2022-10-22T13:35:19;3.90;;;3.33;;
19739;SDS011;10027;51.066;13.768;2022-10-22T13:37:47;3.37;;;2.30;;
19739;SDS011;10027;51.066;13.768;2022-10-22T13:40:14;2.83;;;1.20;;
19739;SDS011;10027;51.066;13.768;2022-10-22T13:42:41;1.43;;;1.00;;
19739;SDS011;10027;51.066;13.768;2022-10-22T13:45:09;1.83;;;1.00;;
19739;SDS011;10027;51.066;13.768;2022-10-22T13:47:36;0.93;;;0.83;;
19739;SDS011;10027;51.066;13.768;2022-10-22T13:50:03;1.23;;;1.13;;
19739;SDS011;10027;51.066;13.768;2022-10-22T13:52:40;1.07;;;0.80;;
19739;SDS011;10027;51.066;13.768;2022-10-22T13:55:13;0.90;;;0.80;;
19739;SDS011;10027;51.066;13.768;2022-10-22T13:57:40;3.63;;;0.83;;
19739;SDS011;10027;51.066;13.768;2022-10-22T14:00:10;0.87;;;0.80;;
19739;SDS011;10027;51.066;13.768;2022-10-22T14:02:37;0.90;;;0.80;;
19739;SDS011;10027;51.066;13.768;2022-10-22T14:05:06;1.00;;;0.80;;
19739;SDS011;10027;51.066;13.768;2022-10-22T14:07:35;1.47;;;0.77;;
19739;SDS011;10027;51.066;13.768;2022-10-22T14:10:05;1.27;;;0.80;;
19739;SDS011;10027;51.066;13.768;2022-10-22T14:12:32;1.00;;;0.90;;
19739;SDS011;10027;51.066;13.768;2022-10-22T14:14:59;0.87;;;0.80;;
19739;SDS011;10027;51.066;13.768;2022-10-22T14:17:26;1.00;;;0.70;;
19739;SDS011;10027;51.066;13.768;2022-10-22T14:19:54;3.00;;;0.80;;
19739;SDS011;10027;51.066;13.768;2022-10-22T14:22:21;1.00;;;0.80;;
19739;SDS011;10027;51.066;13.768;2022-10-22T14:24:50;1.00;;;0.77;;
19739;SDS011;10027;51.066;13.768;2022-10-22T14:27:17;1.57;;;1.07;;
19739;SDS011;10027;51.066;13.768;2022-10-22T14:29:44;1.33;;;1.00;;
19739;SDS011;10027;51.066;13.768;2022-10-22T14:32:15;1.30;;;0.87;;
19739;SDS011;10027;51.066;13.768;2022-10-22T14:34:46;2.60;;;0.87;;
19739;SDS011;10027;51.066;13.768;2022-10-22T14:37:14;0.73;;;0.70;;
19739;SDS011;10027;51.066;13.768;2022-10-22T14:39:42;0.77;;;0.77;;
19739;SDS011;10027;51.066;13.768;2022-10-22T14:42:12;0.60;;;0.60;;
19739;SDS011;10027;51.066;13.768;2022-10-22T14:44:41;1.43;;;0.90;;
19739;SDS011;10027;51.066;13.768;2022-10-22T14:47:08;0.90;;;0.70;;
19739;SDS011;10027;51.066;13.768;2022-10-22T14:49:35;1.00;;;0.73;;
19739;SDS011;10027;51.066;13.768;2022-10-22T14:52:02;0.90;;;0.73;;
19739;SDS011;10027;51.066;13.768;2022-10-22T14:54:29;7.37;;;0.87;;
19739;SDS011;10027;51.066;13.768;2022-10-22T14:56:58;0.73;;;0.73;;
19739;SDS011;10027;51.066;13.768;2022-10-22T14:59:25;0.77;;;0.70;;
19739;SDS011;10027;51.066;13.768;2022-10-22T15:01:52;1.23;;;0.70;;
19739;SDS011;10027;51.066;13.768;2022-10-22T15:04:19;1.10;;;1.00;;
19739;SDS011;10027;51.066;13.768;2022-10-22T15:06:46;1.20;;;0.80;;
19739;SDS011;10027;51.066;13.768;2022-10-22T15:09:13;1.37;;;1.00;;
19739;SDS011;10027;51.066;13.768;2022-10-22T15:11:41;1.07;;;0.97;;
19739;SDS011;10027;51.066;13.768;2022-10-22T15:14:08;1.57;;;0.90;;
19739;SDS011;10027;51.066;13.768;2022-10-22T15:16:35;1.63;;;0.83;;
19739;SDS011;10027;51.066;13.768;2022-10-22T15:19:02;1.00;;;0.90;;
19739;SDS011;10027;51.066;13.768;2022-10-22T15:21:29;1.03;;;0.93;;
19739;SDS011;10027;51.066;13.768;2022-10-22T15:23:56;0.90;;;0.80;;
19739;SDS011;10027;51.066;13.768;2022-10-22T15:26:23;2.10;;;0.97;;
19739;SDS011;10027;51.066;13.768;2022-10-22T15:28:50;2.77;;;1.10;;
19739;SDS011;10027;51.066;13.768;2022-10-22T15:31:17;1.97;;;1.00;;
19739;SDS011;10027;51.066;13.768;2022-10-22T15:34:04;2.77;;;1.10;;
19739;SDS011;10027;51.066;13.768;2022-10-22T15:36:31;0.80;;;0.80;;
19739;SDS011;10027;51.066;13.768;2022-10-22T15:38:58;0.80;;;0.80;;
19739;SDS011;10027;51.066;13.768;2022-10-22T15:41:26;1.20;;;0.97;;
19739;SDS011;10027;51.066;13.768;2022-10-22T15:43:53;2.70;;;1.03;;
19739;SDS011;10027;51.066;13.768;2022-10-22T15:46:20;1.47;;;1.00;;
19739;SDS011;10027;51.066;13.768;2022-10-22T15:48:47;2.60;;;1.13;;
19739;SDS011;10027;51.066;13.768;2022-10-22T15:51:15;1.53;;;1.10;;
19739;SDS011;10027;51.066;13.768;2022-10-22T15:53:43;2.70;;;1.23;;
19739;SDS011;10027;51.066;13.768;2022-10-22T15:56:10;2.77;;;1.60;;
19739;SDS011;10027;51.066;13.768;2022-10-22T15:58:37;3.87;;;2.57;;
19739;SDS011;10027;51.066;13.768;2022-10-22T16:01:05;3.73;;;2.70;;
19739;SDS011;10027;51.066;13.768;2022-10-22T16:03:33;4.97;;;3.23;;
19739;SDS011;10027;51.066;13.768;2022-10-22T16:06:00;8.70;;;3.47;;
19739;SDS011;10027;51.066;13.768;2022-10-22T16:08:28;5.03;;;3.50;;